sensor_id;sensor_type;location;lat;lon;timestamp;P1;durP1;ratioP1;P2;durP2;ratioP2
64401;SDS011;50724;42.376;23.768;2023-03-31T07:35:32;5.22;;;2.25;;
64401;SDS011;50724;42.376;23.768;2023-03-31T07:38:32;4.72;;;1.67;;
64401;SDS011;50724;42.376;23.768;2023-03-31T07:41:33;5.22;;;1.77;;
64401;SDS011;50724;42.376;23.768;2023-03-31T07:44:34;3.88;;;1.65;;
64401;SDS011;50724;42.376;23.768;2023-03-31T07:47:35;4.13;;;1.58;;
64401;SDS011;50724;42.376;23.768;2023-03-31T07:53:37;8.13;;;1.40;;
64401;SDS011;50724;42.376;23.768;2023-03-31T07:56:38;6.82;;;1.92;;
64401;SDS011;50724;42.376;23.768;2023-03-31T07:59:38;4.80;;;1.80;;
64401;SDS011;50724;42.376;23.768;2023-03-31T08:02:39;4.65;;;1.25;;
64401;SDS011;50724;42.376;23.768;2023-03-31T08:05:41;6.15;;;1.98;;
64401;SDS011;50724;42.376;23.768;2023-03-31T08:08:42;8.57;;;2.17;;
64401;SDS011;50724;42.376;23.768;2023-03-31T08:11:42;4.87;;;2.27;;
64401;SDS011;50724;42.376;23.768;2023-03-31T08:14:43;6.72;;;2.67;;
64401;SDS011;50724;42.376;23.768;2023-03-31T08:17:43;5.22;;;2.60;;
64401;SDS011;50724;42.376;23.768;2023-03-31T08:20:44;6.78;;;2.88;;
64401;SDS011;50724;42.376;23.768;2023-03-31T08:23:45;6.75;;;2.75;;
64401;SDS011;50724;42.376;23.768;2023-03-31T08:26:45;11.60;;;3.60;;
64401;SDS011;50724;42.376;23.768;2023-03-31T08:29:46;8.35;;;3.30;;
64401;SDS011;50724;42.376;23.768;2023-03-31T08:32:47;9.57;;;4.45;;
64401;SDS011;50724;42.376;23.768;2023-03-31T08:35:47;10.07;;;4.53;;
64401;SDS011;50724;42.376;23.768;2023-03-31T08:38:48;9.20;;;4.13;;
64401;SDS011;50724;42.376;23.768;2023-03-31T08:44:59;15.38;;;4.05;;
64401;SDS011;50724;42.376;23.768;2023-03-31T08:48:23;8.50;;;4.10;;
64401;SDS011;50724;42.376;23.768;2023-03-31T08:51:26;11.07;;;3.58;;
64401;SDS011;50724;42.376;23.768;2023-03-31T08:54:31;9.23;;;4.10;;
64401;SDS011;50724;42.376;23.768;2023-03-31T08:57:46;11.63;;;4.90;;
64401;SDS011;50724;42.376;23.768;2023-03-31T09:01:01;6.90;;;4.00;;
64401;SDS011;50724;42.376;23.768;2023-03-31T09:10:40;9.02;;;3.65;;
64401;SDS011;50724;42.376;23.768;2023-03-31T09:17:15;5.85;;;2.90;;
64401;SDS011;50724;42.376;23.768;2023-03-31T09:20:36;6.03;;;2.85;;
64401;SDS011;50724;42.376;23.768;2023-03-31T09:27:15;7.93;;;2.28;;
64401;SDS011;50724;42.376;23.768;2023-03-31T09:30:21;7.43;;;2.47;;
64401;SDS011;50724;42.376;23.768;2023-03-31T09:33:30;7.75;;;2.45;;
64401;SDS011;50724;42.376;23.768;2023-03-31T09:36:31;4.90;;;1.95;;
64401;SDS011;50724;42.376;23.768;2023-03-31T09:39:32;7.13;;;2.22;;
64401;SDS011;50724;42.376;23.768;2023-03-31T09:42:33;3.85;;;2.00;;
64401;SDS011;50724;42.376;23.768;2023-03-31T09:48:35;9.63;;;2.67;;
64401;SDS011;50724;42.376;23.768;2023-03-31T09:51:39;4.55;;;2.28;;
64401;SDS011;50724;42.376;23.768;2023-03-31T09:54:44;7.43;;;2.28;;
64401;SDS011;50724;42.376;23.768;2023-03-31T09:57:47;5.88;;;1.95;;
64401;SDS011;50724;42.376;23.768;2023-03-31T10:01:03;6.30;;;2.22;;
64401;SDS011;50724;42.376;23.768;2023-03-31T10:04:08;6.13;;;2.45;;
64401;SDS011;50724;42.376;23.768;2023-03-31T10:07:09;6.97;;;2.53;;
64401;SDS011;50724;42.376;23.768;2023-03-31T10:10:17;6.00;;;2.33;;
64401;SDS011;50724;42.376;23.768;2023-03-31T10:13:28;6.03;;;2.17;;
64401;SDS011;50724;42.376;23.768;2023-03-31T10:19:56;6.50;;;2.20;;
64401;SDS011;50724;42.376;23.768;2023-03-31T10:23:05;4.35;;;1.85;;
64401;SDS011;50724;42.376;23.768;2023-03-31T10:26:23;6.53;;;2.35;;
64401;SDS011;50724;42.376;23.768;2023-03-31T10:29:28;7.15;;;2.03;;
64401;SDS011;50724;42.376;23.768;2023-03-31T10:32:31;7.22;;;1.95;;
64401;SDS011;50724;42.376;23.768;2023-03-31T10:38:43;4.75;;;1.80;;
64401;SDS011;50724;42.376;23.768;2023-03-31T10:41:51;5.40;;;2.05;;
64401;SDS011;50724;42.376;23.768;2023-03-31T10:45:09;7.40;;;2.30;;
64401;SDS011;50724;42.376;23.768;2023-03-31T10:51:26;6.83;;;1.50;;
64401;SDS011;50724;42.376;23.768;2023-03-31T10:54:27;5.05;;;1.98;;
64401;SDS011;50724;42.376;23.768;2023-03-31T10:57:36;4.03;;;1.70;;
64401;SDS011;50724;42.376;23.768;2023-03-31T11:01:07;6.38;;;1.80;;
64401;SDS011;50724;42.376;23.768;2023-03-31T11:08:31;4.22;;;1.65;;
64401;SDS011;50724;42.376;23.768;2023-03-31T11:15:10;5.60;;;1.48;;
64401;SDS011;50724;42.376;23.768;2023-03-31T11:18:29;8.25;;;2.30;;
64401;SDS011;50724;42.376;23.768;2023-03-31T11:28:41;4.65;;;1.52;;
64401;SDS011;50724;42.376;23.768;2023-03-31T11:38:52;4.43;;;2.38;;
64401;SDS011;50724;42.376;23.768;2023-03-31T11:42:04;5.15;;;2.28;;
64401;SDS011;50724;42.376;23.768;2023-03-31T11:48:51;5.32;;;1.80;;
64401;SDS011;50724;42.376;23.768;2023-03-31T11:51:56;4.20;;;1.42;;
64401;SDS011;50724;42.376;23.768;2023-03-31T11:55:03;4.18;;;1.70;;
64401;SDS011;50724;42.376;23.768;2023-03-31T11:58:26;3.20;;;1.70;;
64401;SDS011;50724;42.376;23.768;2023-03-31T12:01:47;5.10;;;2.20;;
64401;SDS011;50724;42.376;23.768;2023-03-31T12:04:53;7.45;;;2.33;;
64401;SDS011;50724;42.376;23.768;2023-03-31T12:08:04;4.78;;;1.70;;
64401;SDS011;50724;42.376;23.768;2023-03-31T12:11:23;4.22;;;1.58;;
64401;SDS011;50724;42.376;23.768;2023-03-31T12:14:36;6.10;;;2.03;;
64401;SDS011;50724;42.376;23.768;2023-03-31T12:17:39;6.55;;;1.83;;
64401;SDS011;50724;42.376;23.768;2023-03-31T12:20:44;8.18;;;1.95;;
64401;SDS011;50724;42.376;23.768;2023-03-31T12:23:50;8.13;;;2.35;;
64401;SDS011;50724;42.376;23.768;2023-03-31T12:30:11;4.07;;;1.65;;
64401;SDS011;50724;42.376;23.768;2023-03-31T12:33:35;3.55;;;1.80;;
64401;SDS011;50724;42.376;23.768;2023-03-31T12:43:41;5.72;;;2.05;;
64401;SDS011;50724;42.376;23.768;2023-03-31T12:49:53;4.03;;;1.33;;
64401;SDS011;50724;42.376;23.768;2023-03-31T12:56:16;3.40;;;1.73;;
64401;SDS011;50724;42.376;23.768;2023-03-31T12:59:17;7.70;;;1.90;;
64401;SDS011;50724;42.376;23.768;2023-03-31T13:02:28;6.15;;;1.85;;
64401;SDS011;50724;42.376;23.768;2023-03-31T13:12:16;4.22;;;1.50;;
64401;SDS011;50724;42.376;23.768;2023-03-31T13:15:21;5.45;;;1.70;;
64401;SDS011;50724;42.376;23.768;2023-03-31T13:18:24;3.65;;;1.85;;
64401;SDS011;50724;42.376;23.768;2023-03-31T13:21:24;3.47;;;1.52;;
64401;SDS011;50724;42.376;23.768;2023-03-31T13:24:26;3.97;;;1.50;;
64401;SDS011;50724;42.376;23.768;2023-03-31T13:27:29;4.07;;;1.73;;
64401;SDS011;50724;42.376;23.768;2023-03-31T13:36:42;5.82;;;1.95;;
64401;SDS011;50724;42.376;23.768;2023-03-31T13:50:18;6.05;;;1.80;;
64401;SDS011;50724;42.376;23.768;2023-03-31T13:53:27;7.07;;;1.90;;
64401;SDS011;50724;42.376;23.768;2023-03-31T14:00:36;4.40;;;1.60;;
64401;SDS011;50724;42.376;23.768;2023-03-31T14:07:33;4.57;;;1.35;;
64401;SDS011;50724;42.376;23.768;2023-03-31T14:10:40;5.05;;;1.75;;
64401;SDS011;50724;42.376;23.768;2023-03-31T14:13:42;3.28;;;1.30;;
64401;SDS011;50724;42.376;23.768;2023-03-31T14:16:47;4.60;;;1.60;;
64401;SDS011;50724;42.376;23.768;2023-03-31T14:20:01;5.30;;;1.98;;
64401;SDS011;50724;42.376;23.768;2023-03-31T14:23:13;6.47;;;1.55;;
64401;SDS011;50724;42.376;23.768;2023-03-31T14:26:29;5.63;;;1.90;;
64401;SDS011;50724;42.376;23.768;2023-03-31T14:30:27;3.58;;;1.65;;
64401;SDS011;50724;42.376;23.768;2023-03-31T14:37:10;7.55;;;1.90;;
64401;SDS011;50724;42.376;23.768;2023-03-31T14:43:55;4.13;;;1.60;;
64401;SDS011;50724;42.376;23.768;2023-03-31T14:46:59;6.90;;;2.00;;
64401;SDS011;50724;42.376;23.768;2023-03-31T14:50:14;5.10;;;1.45;;
64401;SDS011;50724;42.376;23.768;2023-03-31T14:56:20;3.97;;;1.70;;
64401;SDS011;50724;42.376;23.768;2023-03-31T14:59:31;5.25;;;1.60;;
64401;SDS011;50724;42.376;23.768;2023-03-31T15:02:35;5.93;;;1.52;;
64401;SDS011;50724;42.376;23.768;2023-03-31T15:05:39;4.93;;;1.65;;
64401;SDS011;50724;42.376;23.768;2023-03-31T15:08:42;4.72;;;1.75;;
64401;SDS011;50724;42.376;23.768;2023-03-31T15:11:43;4.30;;;1.63;;
64401;SDS011;50724;42.376;23.768;2023-03-31T15:14:50;5.25;;;2.05;;
64401;SDS011;50724;42.376;23.768;2023-03-31T15:17:53;5.13;;;1.42;;
64401;SDS011;50724;42.376;23.768;2023-03-31T15:20:54;4.15;;;1.55;;
64401;SDS011;50724;42.376;23.768;2023-03-31T15:23:54;4.18;;;1.40;;
64401;SDS011;50724;42.376;23.768;2023-03-31T15:26:56;6.28;;;1.70;;
64401;SDS011;50724;42.376;23.768;2023-03-31T15:30:08;5.65;;;1.40;;
64401;SDS011;50724;42.376;23.768;2023-03-31T15:33:17;4.97;;;1.17;;
64401;SDS011;50724;42.376;23.768;2023-03-31T15:36:21;3.38;;;1.25;;
64401;SDS011;50724;42.376;23.768;2023-03-31T15:39:23;7.35;;;1.65;;
64401;SDS011;50724;42.376;23.768;2023-03-31T15:42:25;2.95;;;1.50;;
64401;SDS011;50724;42.376;23.768;2023-03-31T15:48:53;4.07;;;1.60;;
64401;SDS011;50724;42.376;23.768;2023-03-31T15:51:55;5.10;;;1.60;;
64401;SDS011;50724;42.376;23.768;2023-03-31T15:54:56;3.83;;;1.27;;
64401;SDS011;50724;42.376;23.768;2023-03-31T15:57:58;8.88;;;1.80;;
64401;SDS011;50724;42.376;23.768;2023-03-31T16:01:02;4.28;;;1.40;;
64401;SDS011;50724;42.376;23.768;2023-03-31T16:04:06;3.65;;;1.40;;
64401;SDS011;50724;42.376;23.768;2023-03-31T16:07:14;7.25;;;2.10;;
64401;SDS011;50724;42.376;23.768;2023-03-31T16:10:20;4.00;;;1.30;;
64401;SDS011;50724;42.376;23.768;2023-03-31T16:16:22;6.27;;;2.03;;
64401;SDS011;50724;42.376;23.768;2023-03-31T16:19:26;4.30;;;1.35;;
64401;SDS011;50724;42.376;23.768;2023-03-31T16:22:31;5.75;;;1.55;;
64401;SDS011;50724;42.376;23.768;2023-03-31T16:25:38;6.28;;;2.00;;
64401;SDS011;50724;42.376;23.768;2023-03-31T16:28:40;7.82;;;1.55;;
64401;SDS011;50724;42.376;23.768;2023-03-31T16:31:49;5.00;;;1.70;;
64401;SDS011;50724;42.376;23.768;2023-03-31T16:35:06;4.80;;;1.58;;
64401;SDS011;50724;42.376;23.768;2023-03-31T16:38:08;7.03;;;1.63;;
64401;SDS011;50724;42.376;23.768;2023-03-31T16:41:10;4.60;;;1.70;;
64401;SDS011;50724;42.376;23.768;2023-03-31T16:44:11;6.05;;;2.20;;
64401;SDS011;50724;42.376;23.768;2023-03-31T16:47:12;6.70;;;2.13;;
64401;SDS011;50724;42.376;23.768;2023-03-31T16:50:12;7.60;;;1.85;;
64401;SDS011;50724;42.376;23.768;2023-03-31T16:53:15;5.40;;;1.63;;
64401;SDS011;50724;42.376;23.768;2023-03-31T16:56:17;6.38;;;1.90;;
64401;SDS011;50724;42.376;23.768;2023-03-31T16:59:18;4.43;;;1.60;;
64401;SDS011;50724;42.376;23.768;2023-03-31T17:02:18;5.20;;;1.60;;
64401;SDS011;50724;42.376;23.768;2023-03-31T17:05:19;7.67;;;1.80;;
64401;SDS011;50724;42.376;23.768;2023-03-31T17:08:21;7.32;;;1.60;;
64401;SDS011;50724;42.376;23.768;2023-03-31T17:11:31;5.40;;;1.65;;
64401;SDS011;50724;42.376;23.768;2023-03-31T17:14:31;5.83;;;1.80;;
64401;SDS011;50724;42.376;23.768;2023-03-31T17:17:32;5.97;;;1.63;;
64401;SDS011;50724;42.376;23.768;2023-03-31T17:20:41;7.03;;;1.70;;
64401;SDS011;50724;42.376;23.768;2023-03-31T17:23:42;4.38;;;1.85;;
64401;SDS011;50724;42.376;23.768;2023-03-31T17:26:43;4.72;;;1.60;;
64401;SDS011;50724;42.376;23.768;2023-03-31T17:29:43;6.30;;;1.67;;
64401;SDS011;50724;42.376;23.768;2023-03-31T17:32:43;4.33;;;1.67;;
64401;SDS011;50724;42.376;23.768;2023-03-31T17:35:44;6.53;;;1.65;;
64401;SDS011;50724;42.376;23.768;2023-03-31T17:38:44;5.32;;;1.80;;
64401;SDS011;50724;42.376;23.768;2023-03-31T17:41:45;10.50;;;2.00;;
64401;SDS011;50724;42.376;23.768;2023-03-31T17:44:45;3.73;;;1.70;;
64401;SDS011;50724;42.376;23.768;2023-03-31T17:47:49;6.82;;;1.67;;
64401;SDS011;50724;42.376;23.768;2023-03-31T17:50:50;7.85;;;2.13;;
64401;SDS011;50724;42.376;23.768;2023-03-31T17:53:52;5.93;;;2.33;;
64401;SDS011;50724;42.376;23.768;2023-03-31T17:56:52;4.50;;;1.60;;
64401;SDS011;50724;42.376;23.768;2023-03-31T17:59:53;12.05;;;3.33;;
64401;SDS011;50724;42.376;23.768;2023-03-31T18:02:53;8.57;;;2.40;;
64401;SDS011;50724;42.376;23.768;2023-03-31T18:05:54;4.35;;;2.00;;
64401;SDS011;50724;42.376;23.768;2023-03-31T18:08:55;5.90;;;2.30;;
64401;SDS011;50724;42.376;23.768;2023-03-31T18:11:56;7.15;;;1.80;;
64401;SDS011;50724;42.376;23.768;2023-03-31T18:14:57;6.40;;;2.22;;
64401;SDS011;50724;42.376;23.768;2023-03-31T18:17:58;6.28;;;1.80;;
64401;SDS011;50724;42.376;23.768;2023-03-31T18:21:02;5.32;;;1.58;;
64401;SDS011;50724;42.376;23.768;2023-03-31T18:24:03;7.13;;;2.10;;
64401;SDS011;50724;42.376;23.768;2023-03-31T18:27:04;4.13;;;1.60;;
64401;SDS011;50724;42.376;23.768;2023-03-31T18:30:05;7.88;;;1.73;;
64401;SDS011;50724;42.376;23.768;2023-03-31T18:33:07;4.65;;;2.20;;
64401;SDS011;50724;42.376;23.768;2023-03-31T18:36:07;6.18;;;2.00;;
64401;SDS011;50724;42.376;23.768;2023-03-31T18:39:20;4.93;;;1.55;;
64401;SDS011;50724;42.376;23.768;2023-03-31T18:42:21;7.97;;;1.88;;
64401;SDS011;50724;42.376;23.768;2023-03-31T18:45:24;7.30;;;1.73;;
64401;SDS011;50724;42.376;23.768;2023-03-31T18:48:27;4.68;;;1.90;;
64401;SDS011;50724;42.376;23.768;2023-03-31T18:51:28;4.43;;;1.80;;
64401;SDS011;50724;42.376;23.768;2023-03-31T18:54:28;12.20;;;1.90;;
64401;SDS011;50724;42.376;23.768;2023-03-31T18:57:29;4.20;;;1.50;;
64401;SDS011;50724;42.376;23.768;2023-03-31T19:00:29;6.05;;;1.80;;
64401;SDS011;50724;42.376;23.768;2023-03-31T19:03:30;4.93;;;1.60;;
64401;SDS011;50724;42.376;23.768;2023-03-31T19:06:30;4.25;;;1.73;;
64401;SDS011;50724;42.376;23.768;2023-03-31T19:09:31;5.63;;;2.08;;
64401;SDS011;50724;42.376;23.768;2023-03-31T19:12:32;6.40;;;1.60;;
64401;SDS011;50724;42.376;23.768;2023-03-31T19:15:32;5.70;;;1.77;;
64401;SDS011;50724;42.376;23.768;2023-03-31T19:18:36;5.65;;;2.00;;
64401;SDS011;50724;42.376;23.768;2023-03-31T19:21:37;7.53;;;2.10;;
64401;SDS011;50724;42.376;23.768;2023-03-31T19:24:38;6.10;;;2.10;;
64401;SDS011;50724;42.376;23.768;2023-03-31T19:27:39;8.45;;;1.98;;
64401;SDS011;50724;42.376;23.768;2023-03-31T19:30:40;6.63;;;2.20;;
64401;SDS011;50724;42.376;23.768;2023-03-31T19:33:41;10.43;;;3.00;;
64401;SDS011;50724;42.376;23.768;2023-03-31T19:36:42;6.35;;;2.22;;
64401;SDS011;50724;42.376;23.768;2023-03-31T19:39:42;8.57;;;2.53;;
64401;SDS011;50724;42.376;23.768;2023-03-31T19:42:43;6.95;;;2.30;;
64401;SDS011;50724;42.376;23.768;2023-03-31T19:45:44;6.43;;;2.10;;
64401;SDS011;50724;42.376;23.768;2023-03-31T19:48:45;9.30;;;2.78;;
64401;SDS011;50724;42.376;23.768;2023-03-31T19:51:45;6.95;;;2.50;;
64401;SDS011;50724;42.376;23.768;2023-03-31T19:54:46;6.82;;;2.33;;
64401;SDS011;50724;42.376;23.768;2023-03-31T19:57:46;8.25;;;2.92;;
64401;SDS011;50724;42.376;23.768;2023-03-31T20:00:49;7.23;;;3.17;;
64401;SDS011;50724;42.376;23.768;2023-03-31T20:03:50;11.52;;;3.97;;
64401;SDS011;50724;42.376;23.768;2023-03-31T20:06:51;9.65;;;3.95;;
64401;SDS011;50724;42.376;23.768;2023-03-31T20:09:52;14.15;;;3.97;;
64401;SDS011;50724;42.376;23.768;2023-03-31T20:12:53;9.07;;;2.77;;
64401;SDS011;50724;42.376;23.768;2023-03-31T20:16:00;5.63;;;2.50;;
64401;SDS011;50724;42.376;23.768;2023-03-31T20:19:04;5.63;;;2.67;;
64401;SDS011;50724;42.376;23.768;2023-03-31T20:22:05;7.28;;;2.70;;
64401;SDS011;50724;42.376;23.768;2023-03-31T20:25:05;6.18;;;2.45;;
64401;SDS011;50724;42.376;23.768;2023-03-31T20:28:06;9.00;;;2.88;;
64401;SDS011;50724;42.376;23.768;2023-03-31T20:31:07;6.27;;;2.87;;
64401;SDS011;50724;42.376;23.768;2023-03-31T20:34:11;7.35;;;3.10;;
64401;SDS011;50724;42.376;23.768;2023-03-31T20:37:13;5.95;;;3.20;;
64401;SDS011;50724;42.376;23.768;2023-03-31T20:40:14;6.30;;;2.47;;
64401;SDS011;50724;42.376;23.768;2023-03-31T20:43:14;6.30;;;2.28;;
64401;SDS011;50724;42.376;23.768;2023-03-31T20:46:15;7.38;;;2.85;;
64401;SDS011;50724;42.376;23.768;2023-03-31T20:49:16;7.97;;;3.40;;
64401;SDS011;50724;42.376;23.768;2023-03-31T20:52:16;6.22;;;2.28;;
64401;SDS011;50724;42.376;23.768;2023-03-31T20:55:17;6.53;;;2.80;;
64401;SDS011;50724;42.376;23.768;2023-03-31T20:58:17;6.28;;;2.55;;
64401;SDS011;50724;42.376;23.768;2023-03-31T21:01:18;6.43;;;2.40;;
64401;SDS011;50724;42.376;23.768;2023-03-31T21:04:19;7.40;;;2.17;;
64401;SDS011;50724;42.376;23.768;2023-03-31T21:07:20;10.25;;;2.33;;
64401;SDS011;50724;42.376;23.768;2023-03-31T21:10:20;6.50;;;2.33;;
64401;SDS011;50724;42.376;23.768;2023-03-31T21:13:20;7.80;;;2.40;;
64401;SDS011;50724;42.376;23.768;2023-03-31T21:16:21;8.17;;;2.20;;
64401;SDS011;50724;42.376;23.768;2023-03-31T21:19:22;7.88;;;2.65;;
64401;SDS011;50724;42.376;23.768;2023-03-31T21:22:23;5.28;;;2.20;;
64401;SDS011;50724;42.376;23.768;2023-03-31T21:25:23;8.85;;;2.38;;
64401;SDS011;50724;42.376;23.768;2023-03-31T21:28:25;4.93;;;2.15;;
64401;SDS011;50724;42.376;23.768;2023-03-31T21:34:27;6.27;;;2.50;;
64401;SDS011;50724;42.376;23.768;2023-03-31T21:37:27;5.13;;;2.10;;
64401;SDS011;50724;42.376;23.768;2023-03-31T21:40:37;7.38;;;2.80;;
64401;SDS011;50724;42.376;23.768;2023-03-31T21:43:38;5.97;;;2.42;;
64401;SDS011;50724;42.376;23.768;2023-03-31T21:46:38;5.45;;;1.90;;
64401;SDS011;50724;42.376;23.768;2023-03-31T21:49:40;7.20;;;2.50;;
64401;SDS011;50724;42.376;23.768;2023-03-31T21:52:40;7.43;;;2.30;;
64401;SDS011;50724;42.376;23.768;2023-03-31T21:55:40;6.30;;;2.27;;
64401;SDS011;50724;42.376;23.768;2023-03-31T21:58:42;6.38;;;2.38;;
64401;SDS011;50724;42.376;23.768;2023-03-31T22:01:42;6.72;;;2.53;;
64401;SDS011;50724;42.376;23.768;2023-03-31T22:04:43;7.03;;;3.10;;
64401;SDS011;50724;42.376;23.768;2023-03-31T22:07:43;4.78;;;2.65;;
64401;SDS011;50724;42.376;23.768;2023-03-31T22:10:48;4.35;;;2.22;;
64401;SDS011;50724;42.376;23.768;2023-03-31T22:13:50;12.65;;;2.75;;
64401;SDS011;50724;42.376;23.768;2023-03-31T22:16:51;5.30;;;2.45;;
64401;SDS011;50724;42.376;23.768;2023-03-31T22:19:51;9.63;;;2.40;;
64401;SDS011;50724;42.376;23.768;2023-03-31T22:22:51;7.37;;;2.40;;
64401;SDS011;50724;42.376;23.768;2023-03-31T22:25:52;5.30;;;2.22;;
64401;SDS011;50724;42.376;23.768;2023-03-31T22:28:52;11.43;;;2.58;;
64401;SDS011;50724;42.376;23.768;2023-03-31T22:31:53;11.43;;;2.38;;
64401;SDS011;50724;42.376;23.768;2023-03-31T22:34:54;6.65;;;2.35;;
64401;SDS011;50724;42.376;23.768;2023-03-31T22:37:54;7.88;;;2.40;;
64401;SDS011;50724;42.376;23.768;2023-03-31T22:40:55;4.88;;;2.17;;
64401;SDS011;50724;42.376;23.768;2023-03-31T22:47:07;11.68;;;3.30;;
64401;SDS011;50724;42.376;23.768;2023-03-31T22:50:08;10.02;;;2.95;;
64401;SDS011;50724;42.376;23.768;2023-03-31T22:53:09;8.25;;;3.13;;
64401;SDS011;50724;42.376;23.768;2023-03-31T22:56:10;7.35;;;2.95;;
64401;SDS011;50724;42.376;23.768;2023-03-31T22:59:11;4.50;;;2.20;;
64401;SDS011;50724;42.376;23.768;2023-03-31T23:02:11;5.45;;;2.60;;
64401;SDS011;50724;42.376;23.768;2023-03-31T23:05:12;6.45;;;2.55;;
64401;SDS011;50724;42.376;23.768;2023-03-31T23:08:12;9.07;;;2.65;;
64401;SDS011;50724;42.376;23.768;2023-03-31T23:11:12;8.63;;;2.58;;
64401;SDS011;50724;42.376;23.768;2023-03-31T23:14:14;7.55;;;2.70;;
64401;SDS011;50724;42.376;23.768;2023-03-31T23:17:14;6.57;;;2.40;;
64401;SDS011;50724;42.376;23.768;2023-03-31T23:20:15;8.75;;;2.90;;
64401;SDS011;50724;42.376;23.768;2023-03-31T23:23:16;8.07;;;2.40;;
64401;SDS011;50724;42.376;23.768;2023-03-31T23:26:17;6.45;;;2.75;;
64401;SDS011;50724;42.376;23.768;2023-03-31T23:29:20;6.75;;;2.47;;
64401;SDS011;50724;42.376;23.768;2023-03-31T23:32:20;9.57;;;3.53;;
64401;SDS011;50724;42.376;23.768;2023-03-31T23:35:21;8.30;;;2.47;;
64401;SDS011;50724;42.376;23.768;2023-03-31T23:38:22;9.32;;;3.05;;
64401;SDS011;50724;42.376;23.768;2023-03-31T23:41:23;7.78;;;2.60;;
64401;SDS011;50724;42.376;23.768;2023-03-31T23:44:25;5.50;;;2.47;;
64401;SDS011;50724;42.376;23.768;2023-03-31T23:47:26;6.93;;;2.50;;
64401;SDS011;50724;42.376;23.768;2023-03-31T23:50:26;6.78;;;2.85;;
64401;SDS011;50724;42.376;23.768;2023-03-31T23:53:27;7.18;;;2.72;;
64401;SDS011;50724;42.376;23.768;2023-03-31T23:56:28;6.45;;;2.25;;
64401;SDS011;50724;42.376;23.768;2023-03-31T23:59:29;6.30;;;2.10;;
